createdAt,value
2022-12-27T00:01:33.867Z,8.08
2022-12-27T00:04:00.907Z,8.09
2022-12-27T00:06:28.791Z,8.10
2022-12-27T00:08:57.240Z,8.12
2022-12-27T00:11:29.790Z,8.12
2022-12-27T00:14:04.645Z,8.12
2022-12-27T00:16:31.728Z,8.12
2022-12-27T00:18:59.029Z,8.15
2022-12-27T00:21:26.347Z,8.17
2022-12-27T00:23:56.627Z,8.17
2022-12-27T00:26:29.049Z,8.21
2022-12-27T00:28:57.513Z,8.20
2022-12-27T00:31:27.000Z,8.23
2022-12-27T00:33:56.374Z,8.24
2022-12-27T00:36:27.301Z,8.27
2022-12-27T00:38:56.835Z,8.27
2022-12-27T00:41:24.347Z,8.31
2022-12-27T00:43:51.158Z,8.32
2022-12-27T00:46:18.298Z,8.34
2022-12-27T00:48:45.879Z,8.36
2022-12-27T00:51:22.300Z,8.39
2022-12-27T00:53:50.481Z,8.42
2022-12-27T00:56:35.161Z,8.41
2022-12-27T00:59:04.618Z,8.41
2022-12-27T01:01:36.007Z,8.42
2022-12-27T01:04:04.272Z,8.44
2022-12-27T01:06:33.901Z,8.45
2022-12-27T01:09:02.690Z,8.47
2022-12-27T01:11:30.974Z,8.50
2022-12-27T01:14:01.078Z,8.51
2022-12-27T01:16:30.571Z,8.54
2022-12-27T01:18:58.721Z,8.52
2022-12-27T01:21:26.147Z,8.52
2022-12-27T01:23:53.047Z,8.55
2022-12-27T01:26:22.872Z,8.54
2022-12-27T01:28:51.909Z,8.57
2022-12-27T01:31:24.582Z,8.54
2022-12-27T01:33:58.894Z,8.54
2022-12-27T01:36:28.031Z,8.55
2022-12-27T01:38:55.483Z,8.53
2022-12-27T01:41:56.441Z,8.55
2022-12-27T01:44:49.068Z,8.50
2022-12-27T01:47:24.236Z,8.45
2022-12-27T01:50:31.854Z,8.46
2022-12-27T01:53:13.333Z,8.44
2022-12-27T01:55:58.914Z,8.44
2022-12-27T01:58:51.674Z,8.46
2022-12-27T02:01:27.989Z,8.48
2022-12-27T02:04:02.275Z,8.50
2022-12-27T02:06:32.254Z,8.51
2022-12-27T02:09:21.467Z,8.53
2022-12-27T02:11:55.321Z,8.56
2022-12-27T02:14:49.555Z,8.58
2022-12-27T02:17:29.179Z,8.60
2022-12-27T02:20:01.707Z,8.62
2022-12-27T02:23:27.688Z,8.65
2022-12-27T02:26:36.741Z,8.63
2022-12-27T02:29:16.620Z,8.62
2022-12-27T02:32:25.793Z,8.66
2022-12-27T02:35:38.988Z,8.68
2022-12-27T02:38:15.113Z,8.67
2022-12-27T02:41:04.682Z,8.68
2022-12-27T02:43:51.765Z,8.69
2022-12-27T02:46:47.925Z,8.72
2022-12-27T02:50:00.014Z,8.72
2022-12-27T02:53:09.811Z,8.70
2022-12-27T02:56:21.178Z,8.67
2022-12-27T02:59:18.749Z,8.67
2022-12-27T03:02:36.131Z,8.67
2022-12-27T03:05:40.128Z,8.64
2022-12-27T03:08:17.779Z,8.62
2022-12-27T03:11:17.796Z,8.65
2022-12-27T03:14:39.607Z,8.64
2022-12-27T03:17:20.193Z,8.62
2022-12-27T03:20:13.522Z,8.64
2022-12-27T03:23:02.372Z,8.67
2022-12-27T03:25:34.686Z,8.66
2022-12-27T03:28:22.762Z,8.71
2022-12-27T03:42:20.544Z,8.63
2022-12-27T03:44:47.697Z,8.65
2022-12-27T03:47:47.263Z,8.70
2022-12-27T03:50:50.864Z,8.69
2022-12-27T03:53:35.551Z,8.70
2022-12-27T03:56:03.628Z,8.68
2022-12-27T03:58:30.430Z,8.71
2022-12-27T04:00:57.281Z,8.71
2022-12-27T04:03:27.745Z,8.72
2022-12-27T04:05:54.584Z,8.71
2022-12-27T04:08:40.066Z,8.71
2022-12-27T04:11:26.272Z,8.70
2022-12-27T04:14:11.850Z,8.70
2022-12-27T04:16:57.340Z,8.70
2022-12-27T04:19:42.765Z,8.71
2022-12-27T04:22:28.164Z,8.71
2022-12-27T04:25:13.546Z,8.70
2022-12-27T04:27:58.864Z,8.68
2022-12-27T04:30:44.063Z,8.68
2022-12-27T04:33:29.185Z,8.65
2022-12-27T04:35:56.813Z,8.65
2022-12-27T04:38:25.865Z,8.66
2022-12-27T04:41:11.546Z,8.64
2022-12-27T04:43:56.844Z,8.65
2022-12-27T04:46:44.640Z,8.65
2022-12-27T04:49:45.319Z,8.62
2022-12-27T04:52:36.778Z,8.61
2022-12-27T04:55:18.171Z,8.59
2022-12-27T04:57:45.411Z,8.60
2022-12-27T05:00:32.092Z,8.62
2022-12-27T05:03:01.891Z,8.59
2022-12-27T05:05:29.168Z,8.60
2022-12-27T05:08:16.852Z,8.61
2022-12-27T05:11:02.370Z,8.60
2022-12-27T05:13:47.930Z,8.59
2022-12-27T05:16:15.570Z,8.60
2022-12-27T05:18:45.210Z,8.62
2022-12-27T05:21:12.596Z,8.63
2022-12-27T05:24:04.944Z,8.65
2022-12-27T05:26:33.461Z,8.65
2022-12-27T05:29:01.627Z,8.66
2022-12-27T05:31:29.828Z,8.67
2022-12-27T05:33:57.574Z,8.69
2022-12-27T05:36:25.683Z,8.71
2022-12-27T05:38:53.104Z,8.72
2022-12-27T05:41:19.888Z,8.71
2022-12-27T05:43:46.844Z,8.72
2022-12-27T05:46:21.315Z,8.72
2022-12-27T05:48:48.191Z,8.70
2022-12-27T05:51:19.526Z,8.69
2022-12-27T05:53:48.807Z,8.68
2022-12-27T05:56:19.652Z,8.67
2022-12-27T05:58:47.178Z,8.68
2022-12-27T06:01:17.726Z,8.66
2022-12-27T06:03:45.604Z,8.64
2022-12-27T06:06:13.593Z,8.65
2022-12-27T06:08:41.121Z,8.63
2022-12-27T06:11:19.479Z,8.62
2022-12-27T06:13:53.138Z,8.61
2022-12-27T06:16:23.340Z,8.59
2022-12-27T06:18:50.593Z,8.60
2022-12-27T06:21:21.291Z,8.59
2022-12-27T06:23:49.281Z,8.60
2022-12-27T06:26:26.752Z,8.60
2022-12-27T06:28:56.440Z,8.82
2022-12-27T06:31:27.463Z,8.90
2022-12-27T06:33:55.178Z,8.81
2022-12-27T06:36:30.129Z,8.76
2022-12-27T06:38:57.566Z,8.72
2022-12-27T06:41:24.453Z,8.69
2022-12-27T06:43:57.179Z,8.67
2022-12-27T06:46:25.049Z,8.68
2022-12-27T06:48:52.545Z,8.68
2022-12-27T06:51:21.448Z,8.68
2022-12-27T06:53:49.230Z,8.70
2022-12-27T06:56:21.845Z,8.71
2022-12-27T06:58:50.512Z,8.70
2022-12-27T07:01:28.116Z,8.69
2022-12-27T07:03:58.324Z,8.66
2022-12-27T07:06:28.207Z,8.66
2022-12-27T07:09:01.212Z,8.66
2022-12-27T07:11:28.714Z,8.64
2022-12-27T07:13:56.193Z,8.62
2022-12-27T07:16:26.628Z,8.61
2022-12-27T07:18:56.102Z,8.59
2022-12-27T07:21:26.044Z,8.59
2022-12-27T07:23:53.086Z,8.58
2022-12-27T07:26:27.799Z,8.55
2022-12-27T07:28:57.622Z,8.55
2022-12-27T07:31:29.619Z,8.53
2022-12-27T07:33:58.696Z,8.49
2022-12-27T07:36:30.262Z,8.49
2022-12-27T07:38:57.741Z,8.48
2022-12-27T07:41:25.047Z,8.47
2022-12-27T07:43:52.126Z,8.48
2022-12-27T07:46:25.741Z,8.48
2022-12-27T07:48:58.160Z,8.49
2022-12-27T07:51:27.083Z,8.52
2022-12-27T07:53:54.806Z,8.51
2022-12-27T07:56:27.720Z,8.54
2022-12-27T07:58:58.187Z,8.54
2022-12-27T08:01:28.704Z,8.55
2022-12-27T08:05:12.972Z,8.58
2022-12-27T08:07:41.336Z,8.57
2022-12-27T08:10:09.800Z,8.61
2022-12-27T08:12:36.579Z,8.63
2022-12-27T08:15:03.464Z,8.67
2022-12-27T08:17:30.550Z,8.70
2022-12-27T08:24:45.729Z,8.72
2022-12-27T08:36:55.671Z,8.82
2022-12-27T08:43:48.000Z,9.31
2022-12-27T08:46:19.425Z,9.63
2022-12-27T08:48:50.414Z,9.96
2022-12-27T08:51:31.312Z,10.24
2022-12-27T08:54:02.475Z,10.52
2022-12-27T08:56:29.675Z,10.76
2022-12-27T08:58:56.389Z,10.94
2022-12-27T09:02:22.904Z,11.05
2022-12-27T09:04:49.943Z,11.04
2022-12-27T09:07:19.002Z,11.15
2022-12-27T09:10:04.693Z,11.38
2022-12-27T09:12:39.726Z,11.64
2022-12-27T09:15:08.000Z,11.86
2022-12-27T09:17:34.820Z,12.22
2022-12-27T09:20:01.620Z,12.74
2022-12-27T09:22:29.136Z,13.35
2022-12-27T09:24:55.872Z,14.06
2022-12-27T09:27:22.851Z,14.77
2022-12-27T09:29:49.577Z,15.49
2022-12-27T09:32:16.492Z,16.20
2022-12-27T09:34:43.254Z,16.81
2022-12-27T09:37:11.623Z,17.38
2022-12-27T09:47:36.475Z,19.13
2022-12-27T09:50:33.499Z,19.51
2022-12-27T09:54:23.991Z,19.83
2022-12-27T09:57:59.739Z,19.93
2022-12-27T10:09:39.343Z,20.24
2022-12-27T10:12:45.697Z,20.42
2022-12-27T10:15:53.808Z,20.76
2022-12-27T10:19:25.909Z,21.11
2022-12-27T10:29:58.817Z,21.51
2022-12-27T10:31:58.074Z,21.69
2022-12-27T10:34:33.003Z,21.75
2022-12-27T10:44:48.905Z,22.04
2022-12-27T10:47:18.175Z,22.06
2022-12-27T10:50:26.273Z,21.91
2022-12-27T10:52:57.508Z,21.73
2022-12-27T10:55:36.325Z,21.31
2022-12-27T10:58:56.622Z,20.65
2022-12-27T11:01:30.614Z,20.07
2022-12-27T11:04:22.922Z,19.48
2022-12-27T11:07:02.108Z,18.93
2022-12-27T11:09:33.181Z,18.45
2022-12-27T11:12:33.006Z,17.97
2022-12-27T11:15:05.601Z,17.73
2022-12-27T11:17:43.749Z,17.61
2022-12-27T11:20:40.577Z,17.61
2022-12-27T11:23:10.102Z,17.68
2022-12-27T11:26:01.365Z,17.74
2022-12-27T11:28:39.610Z,17.75
2022-12-27T11:31:15.146Z,17.80
2022-12-27T11:33:50.287Z,17.90
2022-12-27T11:36:28.606Z,17.96
2022-12-27T11:38:56.524Z,18.04
2022-12-27T11:41:40.209Z,18.03
2022-12-27T11:44:29.657Z,17.93
2022-12-27T11:47:14.642Z,17.67
2022-12-27T11:50:02.754Z,17.44
2022-12-27T11:53:08.937Z,17.13
2022-12-27T11:56:33.013Z,16.75
2022-12-27T11:59:37.639Z,16.36
2022-12-27T12:02:30.648Z,16.06
2022-12-27T12:05:25.225Z,15.88
2022-12-27T12:08:45.232Z,15.71
2022-12-27T12:11:30.996Z,15.58
2022-12-27T12:14:31.577Z,15.44
2022-12-27T12:17:21.239Z,15.36
2022-12-27T12:20:32.965Z,15.23
2022-12-27T12:23:17.832Z,15.17
2022-12-27T12:26:22.460Z,15.11
2022-12-27T12:29:23.796Z,15.06
2022-12-27T12:32:31.851Z,14.98
2022-12-27T12:35:26.163Z,14.91
2022-12-27T12:38:04.068Z,14.87
2022-12-27T12:40:54.532Z,14.82
2022-12-27T12:43:50.976Z,14.79
2022-12-27T12:46:29.981Z,14.74
2022-12-27T12:49:40.072Z,14.68
2022-12-27T12:52:30.735Z,14.63
2022-12-27T12:55:49.580Z,14.60
2022-12-27T12:59:02.853Z,14.52
2022-12-27T13:02:05.930Z,14.47
2022-12-27T13:05:18.061Z,14.42
2022-12-27T13:08:02.511Z,14.40
2022-12-27T13:11:04.594Z,14.42
2022-12-27T13:13:55.702Z,14.44
2022-12-27T13:16:58.866Z,14.45
2022-12-27T13:19:55.322Z,14.48
2022-12-27T13:22:53.025Z,14.48
2022-12-27T13:25:50.113Z,14.49
2022-12-27T13:28:33.501Z,14.50
2022-12-27T13:31:07.511Z,14.50
2022-12-27T13:34:13.655Z,14.49
2022-12-27T13:37:06.210Z,14.46
2022-12-27T13:39:53.946Z,14.45
2022-12-27T13:43:06.830Z,14.44
2022-12-27T13:45:59.446Z,14.42
2022-12-27T13:48:45.216Z,14.40
2022-12-27T13:51:46.843Z,14.37
2022-12-27T13:55:11.481Z,14.31
2022-12-27T13:58:11.067Z,14.22
2022-12-27T14:01:10.845Z,14.16
2022-12-27T14:03:40.604Z,14.10
2022-12-27T14:06:49.409Z,14.07
2022-12-27T14:09:53.621Z,13.99
2022-12-27T14:12:59.908Z,13.92
2022-12-27T14:16:12.543Z,13.85
2022-12-27T14:19:16.441Z,13.75
2022-12-27T14:22:30.835Z,13.70
2022-12-27T14:25:24.925Z,13.66
2022-12-27T14:29:02.199Z,13.59
2022-12-27T14:32:02.577Z,13.53
2022-12-27T14:34:54.562Z,13.47
2022-12-27T14:37:51.872Z,13.41
2022-12-27T14:41:18.703Z,13.35
2022-12-27T14:44:13.011Z,13.27
2022-12-27T14:47:04.455Z,13.24
2022-12-27T14:49:59.012Z,13.23
2022-12-27T14:53:04.820Z,13.19
2022-12-27T14:56:03.422Z,13.12
2022-12-27T14:59:08.677Z,13.05
2022-12-27T15:02:16.647Z,13.00
2022-12-27T15:05:29.060Z,12.97
2022-12-27T15:08:35.649Z,12.90
2022-12-27T15:11:45.245Z,12.85
2022-12-27T15:14:48.498Z,12.79
2022-12-27T15:18:01.365Z,12.76
2022-12-27T15:21:20.259Z,12.68
2022-12-27T15:24:04.501Z,12.63
2022-12-27T15:26:54.679Z,12.61
2022-12-27T15:29:42.757Z,12.56
2022-12-27T15:32:23.528Z,12.52
2022-12-27T15:35:36.756Z,12.47
2022-12-27T15:38:16.210Z,12.39
2022-12-27T15:41:11.202Z,12.34
2022-12-27T15:44:07.466Z,12.28
2022-12-27T15:47:01.693Z,12.24
2022-12-27T15:50:12.609Z,12.20
2022-12-27T15:52:58.853Z,12.13
2022-12-27T15:55:40.810Z,12.11
2022-12-27T15:58:26.338Z,12.08
2022-12-27T16:01:23.952Z,12.14
2022-12-27T16:03:54.037Z,12.15
2022-12-27T16:06:36.107Z,12.07
2022-12-27T16:09:23.929Z,11.98
2022-12-27T16:12:30.985Z,11.92
2022-12-27T16:15:47.703Z,11.85
2022-12-27T16:18:20.068Z,11.79
2022-12-27T16:20:58.492Z,11.77
2022-12-27T16:23:30.712Z,11.73
2022-12-27T16:26:25.965Z,11.70
2022-12-27T16:29:15.747Z,11.66
2022-12-27T16:31:49.594Z,11.61
2022-12-27T16:34:28.890Z,11.58
2022-12-27T16:37:02.671Z,11.53
2022-12-27T16:40:22.184Z,11.49
2022-12-27T16:42:57.559Z,11.39
2022-12-27T16:45:39.434Z,11.34
2022-12-27T16:48:24.936Z,11.28
2022-12-27T16:51:17.148Z,11.21
2022-12-27T16:54:25.190Z,11.16
2022-12-27T16:57:21.205Z,11.11
2022-12-27T17:00:13.508Z,11.04
2022-12-27T17:02:44.878Z,11.00
2022-12-27T17:05:14.915Z,10.96
2022-12-27T17:08:08.249Z,10.95
2022-12-27T17:10:44.443Z,10.89
2022-12-27T17:13:42.484Z,10.86
2022-12-27T17:16:20.294Z,10.80
2022-12-27T17:18:58.946Z,10.80
2022-12-27T17:21:36.658Z,10.78
2022-12-27T17:24:09.652Z,10.77
2022-12-27T17:27:11.892Z,10.74
2022-12-27T17:30:06.557Z,10.68
2022-12-27T17:33:09.997Z,10.64
2022-12-27T17:35:57.910Z,10.60
2022-12-27T17:39:22.247Z,10.57
2022-12-27T17:42:51.698Z,10.52
2022-12-27T17:45:50.176Z,10.47
2022-12-27T17:48:32.370Z,10.46
2022-12-27T17:51:11.467Z,10.46
2022-12-27T17:54:09.009Z,10.43
2022-12-27T17:57:17.861Z,10.42
2022-12-27T17:59:51.075Z,10.40
2022-12-27T18:02:28.129Z,10.38
2022-12-27T18:04:57.325Z,10.37
2022-12-27T18:07:30.726Z,10.34
2022-12-27T18:10:26.359Z,10.33
2022-12-27T18:12:57.668Z,10.29
2022-12-27T18:15:34.816Z,10.26
2022-12-27T18:18:06.879Z,10.25
2022-12-27T18:20:39.128Z,10.23
2022-12-27T18:23:06.075Z,10.21
2022-12-27T18:25:37.498Z,10.18
2022-12-27T18:28:15.130Z,10.17
2022-12-27T18:30:53.286Z,10.11
2022-12-27T18:33:31.906Z,10.06
2022-12-27T18:36:04.269Z,10.02
2022-12-27T18:38:39.909Z,9.99
2022-12-27T18:41:12.813Z,9.96
2022-12-27T18:43:46.162Z,9.92
2022-12-27T18:46:20.904Z,9.90
2022-12-27T18:48:48.918Z,9.85
2022-12-27T18:51:15.722Z,9.84
2022-12-27T18:53:43.855Z,9.81
2022-12-27T18:56:19.034Z,9.80
2022-12-27T18:59:21.380Z,9.77
2022-12-27T19:01:49.302Z,9.72
2022-12-27T19:04:18.766Z,9.69
2022-12-27T19:07:05.935Z,9.67
2022-12-27T19:09:59.662Z,9.64
2022-12-27T19:12:34.892Z,9.59
2022-12-27T19:15:03.648Z,9.57
2022-12-27T19:17:32.238Z,9.55
2022-12-27T19:20:04.157Z,9.54
2022-12-27T19:22:53.190Z,9.51
2022-12-27T19:25:23.949Z,9.47
2022-12-27T19:28:16.809Z,9.45
2022-12-27T19:30:51.251Z,9.41
2022-12-27T19:33:30.160Z,9.40
2022-12-27T19:35:57.446Z,9.40
2022-12-27T19:38:29.494Z,9.39
2022-12-27T19:41:03.692Z,9.38
2022-12-27T19:43:41.725Z,9.34
2022-12-27T19:46:12.393Z,9.30
2022-12-27T19:48:40.344Z,9.29
2022-12-27T19:51:12.661Z,9.24
2022-12-27T19:53:42.498Z,9.24
2022-12-27T19:56:11.388Z,9.23
2022-12-27T19:58:38.959Z,9.20
2022-12-27T20:01:05.768Z,9.15
2022-12-27T20:03:32.580Z,9.15
2022-12-27T20:06:12.779Z,9.13
2022-12-27T20:08:49.224Z,9.11
2022-12-27T20:11:20.521Z,9.12
2022-12-27T20:13:48.050Z,9.11
2022-12-27T20:16:18.294Z,9.12
2022-12-27T20:18:46.217Z,9.14
2022-12-27T20:21:18.684Z,9.18
2022-12-27T20:23:46.720Z,9.20
2022-12-27T20:26:18.182Z,9.23
2022-12-27T20:28:44.986Z,9.25
2022-12-27T20:31:16.363Z,9.27
2022-12-27T20:33:43.563Z,9.28
2022-12-27T20:36:12.421Z,9.30
2022-12-27T20:38:40.105Z,9.29
2022-12-27T20:41:13.216Z,9.30
2022-12-27T20:43:40.390Z,9.31
2022-12-27T20:46:18.261Z,9.30
2022-12-27T20:48:46.862Z,9.32
2022-12-27T20:51:27.335Z,9.34
2022-12-27T20:54:00.524Z,9.34
2022-12-27T20:56:27.979Z,9.34
2022-12-27T20:58:54.744Z,9.36
2022-12-27T21:01:25.264Z,9.39
2022-12-27T21:03:53.300Z,9.42
2022-12-27T21:06:24.823Z,9.44
2022-12-27T21:08:56.759Z,9.46
2022-12-27T21:11:30.239Z,9.51
2022-12-27T21:13:57.379Z,9.55
2022-12-27T21:16:28.435Z,9.60
2022-12-27T21:18:56.784Z,9.67
2022-12-27T21:21:28.270Z,9.71
2022-12-27T21:23:57.883Z,9.73
2022-12-27T21:26:29.467Z,9.75
2022-12-27T21:28:57.902Z,9.77
2022-12-27T21:31:25.177Z,9.81
2022-12-27T21:33:52.319Z,9.84
2022-12-27T21:36:26.240Z,9.88
2022-12-27T21:38:54.829Z,9.91
2022-12-27T21:41:34.911Z,9.95
2022-12-27T21:44:02.532Z,9.97
2022-12-27T21:46:34.517Z,9.99
2022-12-27T21:49:10.821Z,10.02
2022-12-27T21:51:38.911Z,10.07
2022-12-27T21:54:06.708Z,10.10
2022-12-27T21:56:34.046Z,10.14
2022-12-27T21:59:02.941Z,10.18
2022-12-27T22:01:49.995Z,10.21
2022-12-27T22:04:18.384Z,10.21
2022-12-27T22:06:47.447Z,10.24
2022-12-27T22:09:15.877Z,10.27
2022-12-27T22:11:43.075Z,10.29
2022-12-27T22:14:09.995Z,10.31
2022-12-27T22:16:39.584Z,10.35
2022-12-27T22:19:09.706Z,10.37
2022-12-27T22:21:38.489Z,10.39
2022-12-27T22:24:06.258Z,10.41
2022-12-27T22:26:37.833Z,10.43
2022-12-27T22:29:06.467Z,10.46
2022-12-27T22:31:36.676Z,10.48
2022-12-27T22:34:05.922Z,10.51
2022-12-27T22:36:33.523Z,10.53
2022-12-27T22:39:01.493Z,10.54
2022-12-27T22:41:35.187Z,10.57
2022-12-27T22:44:08.498Z,10.62
2022-12-27T22:47:24.603Z,10.65
2022-12-27T22:49:22.685Z,10.70
2022-12-27T22:51:49.639Z,10.73
2022-12-27T22:54:16.616Z,10.79
2022-12-27T22:56:43.991Z,10.80
2022-12-27T22:59:16.572Z,10.84
2022-12-27T23:01:45.911Z,10.85
2022-12-27T23:04:14.580Z,10.91
2022-12-27T23:06:42.458Z,10.91
2022-12-27T23:09:10.040Z,10.93
2022-12-27T23:11:40.835Z,10.95
2022-12-27T23:14:14.430Z,10.99
2022-12-27T23:16:48.114Z,11.01
2022-12-27T23:19:18.928Z,11.03
2022-12-27T23:21:46.931Z,11.04
2022-12-27T23:24:14.496Z,11.05
2022-12-27T23:26:42.373Z,11.04
2022-12-27T23:29:13.112Z,11.05
2022-12-27T23:31:54.881Z,11.07
2022-12-27T23:34:28.112Z,11.09
2022-12-27T23:36:55.883Z,11.10
2022-12-27T23:39:22.645Z,11.13
2022-12-27T23:41:49.525Z,11.15
2022-12-27T23:44:21.228Z,11.18
2022-12-27T23:47:00.624Z,11.21
2022-12-27T23:49:27.515Z,11.26
2022-12-27T23:51:54.294Z,11.29
2022-12-27T23:54:21.162Z,11.34
2022-12-27T23:56:47.917Z,11.39
2022-12-27T23:59:16.876Z,11.40
